Time;durP1;ratioP1;P1;durP2;ratioP2;P2;SDS_P1;SDS_P2;PMS_P1;PMS_P2;Temp;Humidity;BMP_temperature;BMP_pressure;BME280_temperature;BME280_humidity;BME280_pressure;Samples;Min_cycle;Max_cycle;Signal;HPM_P1;HPM_P2
2023/10/26 00:01:22;;;;;;;16.58;14.40;;;11.10;99.90;;;;;;6271745;22;19999;-74
2023/10/26 00:03:47;;;;;;;23.00;16.27;;;11.00;99.90;;;;;;6271644;22;20469;-75
2023/10/26 00:06:13;;;;;;;16.92;15.13;;;10.90;99.90;;;;;;6244997;22;20010;-75
2023/10/26 00:08:38;;;;;;;16.85;14.13;;;10.90;99.90;;;;;;6271143;22;20026;-75
2023/10/26 00:11:04;;;;;;;21.40;16.05;;;10.90;99.90;;;;;;6271786;22;19996;-75
2023/10/26 00:13:29;;;;;;;15.82;14.13;;;10.80;99.90;;;;;;6271362;22;20000;-75
2023/10/26 00:15:55;;;;;;;19.65;16.23;;;10.80;99.90;;;;;;6244322;22;20026;-75
2023/10/26 00:18:21;;;;;;;18.42;15.95;;;10.80;99.90;;;;;;6272071;22;20101;-75
2023/10/26 00:20:46;;;;;;;20.25;15.48;;;10.80;99.90;;;;;;6271803;22;20391;-75
2023/10/26 00:23:12;;;;;;;21.05;15.77;;;10.80;99.90;;;;;;6271379;22;20000;-75
2023/10/26 00:25:38;;;;;;;16.50;14.85;;;10.80;99.90;;;;;;6270780;22;20027;-75
2023/10/26 00:28:03;;;;;;;17.88;15.13;;;10.80;99.90;;;;;;6271695;22;20007;-75
2023/10/26 00:30:29;;;;;;;16.00;13.95;;;10.70;99.90;;;;;;6271507;22;20006;-75
2023/10/26 00:32:54;;;;;;;16.92;15.20;;;10.70;99.90;;;;;;6271512;22;20341;-75
2023/10/26 00:35:20;;;;;;;17.98;13.88;;;10.60;99.90;;;;;;6271583;22;20014;-75
2023/10/26 00:37:46;;;;;;;20.73;15.95;;;10.70;99.90;;;;;;6270635;22;20409;-75
2023/10/26 00:40:12;;;;;;;19.15;15.75;;;10.70;99.90;;;;;;6244632;22;20010;-75
2023/10/26 00:42:38;;;;;;;19.52;15.60;;;10.60;99.90;;;;;;6271072;22;19995;-75
2023/10/26 00:45:04;;;;;;;17.63;15.65;;;10.60;99.90;;;;;;6271329;22;20019;-75
2023/10/26 00:47:31;;;;;;;19.15;16.13;;;10.60;99.90;;;;;;6271019;22;20088;-75
2023/10/26 00:49:58;;;;;;;17.95;15.32;;;10.60;99.90;;;;;;6271550;22;20355;-74
2023/10/26 00:52:24;;;;;;;19.25;17.02;;;10.60;99.90;;;;;;6270814;22;20007;-75
2023/10/26 00:54:51;;;;;;;24.83;19.23;;;10.70;99.90;;;;;;6243932;22;20315;-75
2023/10/26 00:57:19;;;;;;;21.58;17.85;;;10.70;99.90;;;;;;6271223;22;20008;-75
2023/10/26 00:59:46;;;;;;;25.40;19.77;;;10.70;99.90;;;;;;6271062;22;20045;-75
2023/10/26 01:02:13;;;;;;;23.45;17.27;;;10.70;99.90;;;;;;6244528;22;20050;-75
2023/10/26 01:04:40;;;;;;;26.85;18.70;;;10.70;99.90;;;;;;6270948;22;20006;-75
2023/10/26 01:07:05;;;;;;;25.65;18.73;;;10.70;99.90;;;;;;6270875;22;20007;-75
2023/10/26 01:09:31;;;;;;;23.95;17.92;;;10.70;99.90;;;;;;6270838;22;20011;-75
2023/10/26 01:11:57;;;;;;;26.45;19.90;;;10.80;99.90;;;;;;6271010;22;20303;-75
2023/10/26 01:14:23;;;;;;;27.63;21.15;;;10.80;99.90;;;;;;6271420;22;20027;-75
2023/10/26 01:16:49;;;;;;;33.42;20.60;;;10.80;99.90;;;;;;6243730;22;20004;-75
2023/10/26 01:19:15;;;;;;;24.17;18.52;;;10.90;99.90;;;;;;6271604;22;20421;-75
2023/10/26 01:21:47;;;;;;;24.00;17.88;;;10.90;99.90;;;;;;6270869;22;20028;-75
2023/10/26 01:24:13;;;;;;;25.60;19.58;;;10.90;99.90;;;;;;6271670;22;20000;-75
2023/10/26 01:26:40;;;;;;;26.15;19.75;;;11.00;99.90;;;;;;6270832;22;19995;-75
2023/10/26 01:29:06;;;;;;;28.23;19.73;;;11.00;99.90;;;;;;6271153;22;20053;-75
2023/10/26 01:31:31;;;;;;;40.65;23.83;;;10.90;99.90;;;;;;6271269;22;20004;-75
2023/10/26 01:33:57;;;;;;;35.05;21.20;;;10.90;99.90;;;;;;6270963;22;20087;-75
2023/10/26 01:36:22;;;;;;;38.83;23.55;;;10.90;99.90;;;;;;6271137;22;20015;-75
2023/10/26 01:38:48;;;;;;;34.05;23.80;;;10.90;99.90;;;;;;6272618;22;20011;-75
2023/10/26 01:41:13;;;;;;;29.77;22.88;;;10.80;99.90;;;;;;6273647;22;19999;-75
2023/10/26 01:43:39;;;;;;;44.35;26.42;;;10.80;99.90;;;;;;6272854;22;20008;-75
2023/10/26 01:46:04;;;;;;;30.92;23.80;;;10.80;99.90;;;;;;6273106;22;20086;-75
2023/10/26 01:48:30;;;;;;;31.23;22.63;;;10.80;99.90;;;;;;6245947;22;20336;-75
2023/10/26 01:50:55;;;;;;;31.05;22.98;;;10.70;99.90;;;;;;6272609;22;20461;-74
2023/10/26 01:53:25;;;;;;;28.88;20.48;;;10.70;99.90;;;;;;6273190;22;20003;-75
2023/10/26 01:55:51;;;;;;;30.08;21.92;;;10.80;99.90;;;;;;6272909;22;20330;-75
2023/10/26 01:58:16;;;;;;;33.30;20.80;;;10.70;99.90;;;;;;6273130;22;20000;-74
2023/10/26 02:00:42;;;;;;;31.20;21.20;;;10.70;99.90;;;;;;6273148;22;19996;-74
2023/10/26 02:03:07;;;;;;;40.47;26.13;;;10.70;99.90;;;;;;6273063;22;20074;-75
2023/10/26 02:05:34;;;;;;;30.33;22.13;;;10.80;99.90;;;;;;6272384;22;20081;-75
2023/10/26 02:07:59;;;;;;;33.35;23.88;;;10.80;99.90;;;;;;6272497;22;20342;-75
2023/10/26 02:10:29;;;;;;;29.40;21.15;;;10.80;99.90;;;;;;6246002;22;20033;-75
2023/10/26 02:12:55;;;;;;;31.20;23.08;;;10.70;99.90;;;;;;6272546;22;20000;-75
2023/10/26 02:15:21;;;;;;;39.30;25.70;;;10.80;99.90;;;;;;6272766;22;20031;-75
2023/10/26 02:17:47;;;;;;;33.50;23.65;;;10.80;99.90;;;;;;6272534;22;20003;-74
2023/10/26 02:20:12;;;;;;;31.00;22.48;;;10.80;99.90;;;;;;6272740;22;20007;-74
2023/10/26 02:22:38;;;;;;;33.50;23.73;;;10.80;99.90;;;;;;6272753;22;20079;-74
2023/10/26 02:25:04;;;;;;;37.50;24.02;;;10.80;99.90;;;;;;6245585;22;20421;-74
2023/10/26 02:27:31;;;;;;;28.77;22.23;;;10.80;99.90;;;;;;6271906;22;20011;-75
2023/10/26 02:29:56;;;;;;;29.92;22.48;;;10.90;99.90;;;;;;6272773;22;20014;-74
2023/10/26 02:32:22;;;;;;;31.55;24.13;;;10.90;99.90;;;;;;6245302;22;20000;-75
2023/10/26 02:34:47;;;;;;;31.77;23.52;;;10.90;99.90;;;;;;6271950;22;20011;-75
2023/10/26 02:37:13;;;;;;;32.95;23.98;;;10.90;99.90;;;;;;6272963;22;20053;-75
2023/10/26 02:39:38;;;;;;;38.22;24.15;;;10.90;99.90;;;;;;6246149;22;20062;-75
2023/10/26 02:42:04;;;;;;;28.50;22.17;;;10.90;99.90;;;;;;6273163;22;20417;-74
2023/10/26 02:44:30;;;;;;;29.85;23.52;;;10.90;99.90;;;;;;6246010;22;20031;-74
2023/10/26 02:46:55;;;;;;;27.77;21.83;;;10.90;99.90;;;;;;6246061;22;20432;-75
2023/10/26 02:49:21;;;;;;;28.70;22.17;;;10.90;99.90;;;;;;6272180;22;19998;-74
2023/10/26 02:51:46;;;;;;;33.50;24.63;;;10.80;99.90;;;;;;6273022;22;19996;-75
2023/10/26 02:54:12;;;;;;;36.42;25.77;;;10.80;99.90;;;;;;6273773;22;20000;-75
2023/10/26 02:56:37;;;;;;;35.70;23.35;;;10.80;99.90;;;;;;6272709;22;20030;-75
2023/10/26 02:59:04;;;;;;;27.83;21.70;;;10.80;99.90;;;;;;6245964;22;20007;-75
2023/10/26 03:01:34;;;;;;;29.25;21.85;;;10.80;99.90;;;;;;6272943;22;20008;-75
2023/10/26 03:04:03;;;;;;;24.60;20.38;;;10.80;99.90;;;;;;6273045;22;20023;-75
2023/10/26 03:06:35;;;;;;;24.80;19.85;;;10.70;99.90;;;;;;6272820;22;20074;-75
2023/10/26 03:09:00;;;;;;;24.42;19.52;;;10.70;99.90;;;;;;6273383;22;20003;-74
2023/10/26 03:11:26;;;;;;;26.00;19.98;;;10.70;99.90;;;;;;6273281;22;20212;-74
2023/10/26 03:13:51;;;;;;;29.27;22.48;;;10.70;99.90;;;;;;6273085;22;20054;-74
2023/10/26 03:16:17;;;;;;;28.95;21.02;;;10.70;99.90;;;;;;6273016;22;20012;-74
2023/10/26 03:18:43;;;;;;;30.10;22.42;;;10.70;99.90;;;;;;6272886;22;20023;-74
2023/10/26 03:21:08;;;;;;;37.30;23.00;;;10.70;99.90;;;;;;6273143;22;19996;-74
2023/10/26 03:23:34;;;;;;;36.25;24.23;;;10.70;99.90;;;;;;6272814;22;20000;-74
2023/10/26 03:26:00;;;;;;;28.02;21.73;;;10.70;99.90;;;;;;6273044;22;20011;-74
2023/10/26 03:28:25;;;;;;;35.83;22.30;;;10.70;99.90;;;;;;6273173;22;20010;-74
2023/10/26 03:30:51;;;;;;;25.92;19.35;;;10.70;99.90;;;;;;6272103;22;20405;-74
2023/10/26 03:33:16;;;;;;;32.10;21.75;;;10.70;99.90;;;;;;6273025;22;20000;-74
2023/10/26 03:35:42;;;;;;;24.95;19.90;;;10.70;99.90;;;;;;6272591;22;20017;-74
2023/10/26 03:38:08;;;;;;;31.02;21.88;;;10.70;99.90;;;;;;6272711;22;20022;-74
2023/10/26 03:40:34;;;;;;;29.98;21.17;;;10.60;99.90;;;;;;6272744;22;20038;-74
2023/10/26 03:42:59;;;;;;;29.75;21.45;;;10.60;99.90;;;;;;6272717;22;20008;-74
2023/10/26 03:45:27;;;;;;;31.50;22.83;;;10.50;99.90;;;;;;6272170;22;20061;-74
2023/10/26 03:47:52;;;;;;;25.48;18.58;;;10.50;99.90;;;;;;6272479;22;20023;-74
2023/10/26 03:50:18;;;;;;;26.77;19.30;;;10.40;99.90;;;;;;6272667;22;20007;-74
2023/10/26 03:52:44;;;;;;;27.15;19.42;;;10.40;99.90;;;;;;6272265;22;20000;-74
2023/10/26 03:55:09;;;;;;;27.08;18.80;;;10.40;99.90;;;;;;6272783;22;20082;-74
2023/10/26 03:57:35;;;;;;;31.80;21.20;;;10.30;99.90;;;;;;6272443;22;20411;-74
2023/10/26 04:00:00;;;;;;;41.28;21.90;;;10.30;99.90;;;;;;6244536;22;20065;-74
2023/10/26 04:02:26;;;;;;;23.98;19.10;;;10.30;99.90;;;;;;6272496;22;19996;-74
2023/10/26 04:04:51;;;;;;;40.00;21.13;;;10.30;99.90;;;;;;6272532;22;20003;-74
2023/10/26 04:07:18;;;;;;;28.10;20.83;;;10.30;99.90;;;;;;6272068;22;20487;-74
2023/10/26 04:09:44;;;;;;;23.75;18.23;;;10.20;99.90;;;;;;6272174;22;20000;-74
2023/10/26 04:12:09;;;;;;;34.28;21.67;;;10.20;99.90;;;;;;6272645;22;20059;-74
2023/10/26 04:14:35;;;;;;;25.73;20.77;;;10.20;99.90;;;;;;6271294;22;20381;-74
2023/10/26 04:17:00;;;;;;;38.30;23.40;;;10.20;99.90;;;;;;6272314;22;20003;-74
2023/10/26 04:19:26;;;;;;;41.25;21.88;;;10.20;99.90;;;;;;6272270;22;19996;-74
2023/10/26 04:21:51;;;;;;;23.42;19.13;;;10.20;99.90;;;;;;6272241;22;19999;-74
2023/10/26 04:24:17;;;;;;;33.58;21.90;;;10.20;99.90;;;;;;6272361;22;20010;-74
2023/10/26 04:26:43;;;;;;;29.67;20.73;;;10.20;99.90;;;;;;6272280;22;20126;-74
2023/10/26 04:29:08;;;;;;;30.90;21.25;;;10.10;99.90;;;;;;6244253;22;20011;-74
2023/10/26 04:31:34;;;;;;;22.80;17.80;;;10.10;99.90;;;;;;6272177;22;20087;-74
2023/10/26 04:34:00;;;;;;;24.60;17.92;;;10.10;99.90;;;;;;6272082;22;20037;-74
2023/10/26 04:36:26;;;;;;;29.77;20.10;;;10.10;99.90;;;;;;6272128;22;20007;-74
2023/10/26 04:38:51;;;;;;;32.72;20.25;;;10.10;99.90;;;;;;6271714;22;20026;-74
2023/10/26 04:41:17;;;;;;;23.70;17.40;;;10.00;99.90;;;;;;6271735;22;20004;-74
2023/10/26 04:43:42;;;;;;;32.38;20.48;;;10.00;99.90;;;;;;6268202;22;20004;-74
2023/10/26 04:46:08;;;;;;;30.20;20.63;;;10.00;99.90;;;;;;6269025;22;20004;-75
2023/10/26 04:48:34;;;;;;;33.40;22.27;;;10.00;99.90;;;;;;6270026;22;20010;-74
2023/10/26 04:51:00;;;;;;;34.13;23.60;;;10.10;99.90;;;;;;6270274;22;20027;-74
2023/10/26 04:53:25;;;;;;;31.05;23.67;;;10.10;99.90;;;;;;6271989;22;20002;-74
2023/10/26 04:55:51;;;;;;;47.22;24.27;;;10.10;99.90;;;;;;6271668;22;20008;-74
2023/10/26 04:58:17;;;;;;;64.57;27.42;;;10.20;99.90;;;;;;6271558;22;20073;-74
2023/10/26 05:00:42;;;;;;;53.60;24.52;;;10.20;99.90;;;;;;6272145;22;19995;-75
2023/10/26 05:03:08;;;;;;;72.72;25.33;;;10.20;99.90;;;;;;6272011;22;20007;-74
2023/10/26 05:05:33;;;;;;;64.57;23.33;;;10.20;99.90;;;;;;6271898;22;20030;-74
2023/10/26 05:07:59;;;;;;;81.00;24.98;;;10.20;99.90;;;;;;6271963;22;20011;-75
2023/10/26 05:10:24;;;;;;;50.40;21.92;;;10.20;99.90;;;;;;6272087;22;20324;-75
2023/10/26 05:12:50;;;;;;;65.95;23.10;;;10.20;99.90;;;;;;6243651;22;20014;-75
2023/10/26 05:15:16;;;;;;;89.90;23.33;;;10.30;99.90;;;;;;6272040;22;20078;-75
2023/10/26 05:17:41;;;;;;;69.88;22.90;;;10.30;99.90;;;;;;6271974;22;20074;-75
2023/10/26 05:20:08;;;;;;;54.83;19.65;;;10.30;99.90;;;;;;6272253;22;20520;-75
2023/10/26 05:22:33;;;;;;;138.25;28.08;;;10.40;99.90;;;;;;6271599;22;20000;-75
2023/10/26 05:25:04;;;;;;;158.68;27.85;;;10.40;99.90;;;;;;6272055;22;20084;-75
2023/10/26 05:27:29;;;;;;;60.40;21.05;;;10.40;99.90;;;;;;6271007;22;20070;-75
2023/10/26 05:29:55;;;;;;;136.95;28.30;;;10.50;99.90;;;;;;6271614;22;20408;-75
2023/10/26 05:32:21;;;;;;;83.93;23.75;;;10.50;99.90;;;;;;6271813;22;19999;-75
2023/10/26 05:34:46;;;;;;;99.22;23.73;;;10.50;99.90;;;;;;6271468;22;20098;-76
2023/10/26 05:37:12;;;;;;;78.82;22.00;;;10.50;99.90;;;;;;6272040;22;20007;-75
2023/10/26 05:39:37;;;;;;;122.28;25.92;;;10.60;99.90;;;;;;6271539;22;20014;-75
2023/10/26 05:42:04;;;;;;;105.00;26.33;;;10.60;99.90;;;;;;6271025;22;20414;-75
2023/10/26 05:44:31;;;;;;;37.88;19.70;;;10.60;99.90;;;;;;6271717;22;20431;-75
2023/10/26 05:46:57;;;;;;;33.72;18.25;;;10.60;99.90;;;;;;6271619;22;20089;-75
2023/10/26 05:49:23;;;;;;;44.80;20.85;;;10.60;99.90;;;;;;6271795;22;20318;-75
2023/10/26 05:51:48;;;;;;;68.40;22.77;;;10.50;99.90;;;;;;6242299;22;20083;-75
2023/10/26 05:54:14;;;;;;;63.67;19.08;;;10.50;99.90;;;;;;6269401;22;20405;-76
2023/10/26 05:56:39;;;;;;;97.60;21.92;;;10.50;99.90;;;;;;6269450;22;20003;-76
2023/10/26 05:59:05;;;;;;;100.15;23.35;;;10.50;99.90;;;;;;6270485;22;20000;-76
2023/10/26 06:01:31;;;;;;;88.35;22.70;;;10.50;99.90;;;;;;6271213;22;20068;-76
2023/10/26 06:03:56;;;;;;;56.83;20.55;;;10.50;99.90;;;;;;6271531;22;20011;-76
2023/10/26 06:06:22;;;;;;;45.13;19.23;;;10.40;99.90;;;;;;6271615;22;20003;-76
2023/10/26 06:08:47;;;;;;;40.78;18.52;;;10.40;99.90;;;;;;6271649;22;20007;-76
2023/10/26 06:11:13;;;;;;;73.45;20.92;;;10.40;99.90;;;;;;6271149;22;20008;-76
2023/10/26 06:13:38;;;;;;;203.00;29.80;;;10.40;99.90;;;;;;6271238;22;20303;-76
2023/10/26 06:16:04;;;;;;;51.50;18.23;;;10.40;99.90;;;;;;6271597;22;20010;-76
2023/10/26 06:18:32;;;;;;;83.05;22.48;;;10.40;99.90;;;;;;6271448;22;20302;-76
2023/10/26 06:20:59;;;;;;;86.38;22.40;;;10.50;99.90;;;;;;6271683;22;20000;-76
2023/10/26 06:23:27;;;;;;;126.25;22.95;;;10.40;99.90;;;;;;6273010;22;19996;-76
2023/10/26 06:25:58;;;;;;;125.63;23.55;;;10.50;99.90;;;;;;6273147;22;20010;-76
2023/10/26 06:28:24;;;;;;;86.38;20.95;;;10.50;99.90;;;;;;6273586;22;20010;-76
2023/10/26 06:30:49;;;;;;;67.57;20.65;;;10.40;99.90;;;;;;6272919;22;20003;-76
2023/10/26 06:33:15;;;;;;;129.13;22.50;;;10.50;99.90;;;;;;6273777;22;20307;-77
2023/10/26 06:35:41;;;;;;;111.18;21.80;;;10.40;99.90;;;;;;6273346;22;20018;-76
2023/10/26 06:38:06;;;;;;;107.57;22.25;;;10.50;99.90;;;;;;6273186;22;20012;-77
2023/10/26 06:40:32;;;;;;;114.53;21.17;;;10.50;99.90;;;;;;6273055;22;20027;-76
2023/10/26 06:43:00;;;;;;;75.32;18.08;;;10.50;99.90;;;;;;6273406;22;20421;-76
2023/10/26 06:45:25;;;;;;;140.02;23.77;;;10.50;99.90;;;;;;6273147;22;20008;-76
2023/10/26 06:47:51;;;;;;;89.07;20.63;;;10.50;99.90;;;;;;6272968;22;20004;-76
2023/10/26 06:50:17;;;;;;;275.73;34.63;;;10.40;99.90;;;;;;6271084;22;20004;-76
2023/10/26 06:52:43;;;;;;;263.63;31.85;;;10.50;99.90;;;;;;6273231;22;20011;-76
2023/10/26 06:55:15;;;;;;;66.78;19.17;;;10.40;99.90;;;;;;6271917;22;20031;-77
2023/10/26 06:57:43;;;;;;;34.38;18.38;;;10.40;99.90;;;;;;6271807;22;20003;-76
2023/10/26 07:00:10;;;;;;;89.15;18.42;;;10.40;99.90;;;;;;6271669;22;20437;-76
2023/10/26 07:02:36;;;;;;;63.78;18.77;;;10.40;99.90;;;;;;6271969;22;20103;-76
2023/10/26 07:05:03;;;;;;;56.50;16.17;;;10.40;99.90;;;;;;6272698;22;20000;-76
2023/10/26 07:07:30;;;;;;;108.68;21.70;;;10.40;99.90;;;;;;6272484;22;20003;-76
2023/10/26 07:09:57;;;;;;;63.20;16.88;;;10.40;99.90;;;;;;6271140;22;20031;-76
2023/10/26 07:12:22;;;;;;;91.88;17.13;;;10.40;99.90;;;;;;6273105;22;20011;-76
2023/10/26 07:14:52;;;;;;;69.82;15.65;;;10.40;99.90;;;;;;6271161;22;20018;-76
2023/10/26 07:17:18;;;;;;;86.93;17.00;;;10.40;99.90;;;;;;6272732;22;20003;-76
2023/10/26 07:19:43;;;;;;;62.67;19.42;;;10.50;99.90;;;;;;6271748;22;20038;-76
2023/10/26 07:22:09;;;;;;;63.75;16.42;;;10.50;99.90;;;;;;6272055;22;20000;-75
2023/10/26 07:24:35;;;;;;;52.80;13.45;;;10.50;99.90;;;;;;6271869;22;20421;-75
2023/10/26 07:27:00;;;;;;;45.38;15.18;;;10.50;99.90;;;;;;6272992;22;20079;-76
2023/10/26 07:29:26;;;;;;;39.92;13.27;;;10.60;99.90;;;;;;6272492;22;19999;-76
2023/10/26 07:31:52;;;;;;;33.25;16.45;;;10.60;99.90;;;;;;6271201;22;20002;-76
2023/10/26 07:34:17;;;;;;;46.42;17.35;;;10.60;99.90;;;;;;6272354;22;19996;-76
2023/10/26 07:36:43;;;;;;;57.10;16.75;;;10.60;99.90;;;;;;6272692;22;20307;-76
2023/10/26 07:39:08;;;;;;;82.35;20.02;;;10.60;99.90;;;;;;6271974;22;20016;-76
2023/10/26 07:41:34;;;;;;;66.35;19.70;;;10.60;99.90;;;;;;6271745;22;20022;-76
2023/10/26 07:43:59;;;;;;;90.05;19.17;;;10.70;99.90;;;;;;6271926;22;20008;-76
2023/10/26 07:46:25;;;;;;;138.25;23.08;;;10.70;99.90;;;;;;6245259;22;20011;-76
2023/10/26 07:48:50;;;;;;;79.32;18.42;;;10.70;99.90;;;;;;6271910;22;19999;-75
2023/10/26 07:51:17;;;;;;;66.72;17.70;;;10.80;99.90;;;;;;6272443;22;20077;-76
2023/10/26 07:53:43;;;;;;;70.07;16.92;;;10.80;99.90;;;;;;6270900;22;20008;-75
2023/10/26 07:56:08;;;;;;;85.32;19.55;;;10.70;99.90;;;;;;6272074;22;20010;-76
2023/10/26 07:58:34;;;;;;;92.13;21.60;;;10.80;99.90;;;;;;6270895;22;20008;-75
2023/10/26 08:00:59;;;;;;;99.65;19.63;;;10.80;99.90;;;;;;6272138;22;20014;-76
2023/10/26 08:03:27;;;;;;;78.30;17.92;;;10.80;99.90;;;;;;6271128;22;20087;-76
2023/10/26 08:05:57;;;;;;;81.75;18.60;;;10.80;99.90;;;;;;6244570;22;20034;-75
2023/10/26 08:08:22;;;;;;;97.20;18.45;;;10.90;99.90;;;;;;6271737;22;20440;-75
2023/10/26 08:10:48;;;;;;;50.60;16.98;;;10.90;99.90;;;;;;6271902;22;20000;-75
2023/10/26 08:13:13;;;;;;;78.80;19.30;;;10.90;99.90;;;;;;6272578;22;20271;-75
2023/10/26 08:15:41;;;;;;;100.97;20.60;;;11.00;99.90;;;;;;6270545;22;20062;-76
2023/10/26 08:18:07;;;;;;;79.07;17.17;;;11.10;99.90;;;;;;6272162;22;20684;-75
2023/10/26 08:20:33;;;;;;;50.35;16.15;;;11.10;99.90;;;;;;6271999;22;20075;-76
2023/10/26 08:22:58;;;;;;;39.40;15.93;;;11.10;99.90;;;;;;6271727;22;20004;-75
2023/10/26 08:25:23;;;;;;;54.00;18.55;;;11.20;99.90;;;;;;6270339;22;20073;-76
2023/10/26 08:27:49;;;;;;;54.63;17.20;;;11.20;99.90;;;;;;6271764;22;20057;-75
2023/10/26 08:30:15;;;;;;;85.28;19.48;;;11.20;99.90;;;;;;6271950;22;20027;-75
2023/10/26 08:32:40;;;;;;;53.80;17.58;;;11.30;99.90;;;;;;6272221;22;20027;-75
2023/10/26 08:35:06;;;;;;;25.55;15.45;;;11.30;99.90;;;;;;6272194;22;20004;-75
2023/10/26 08:37:32;;;;;;;56.78;19.13;;;11.40;99.90;;;;;;6269580;22;20000;-75
2023/10/26 08:39:57;;;;;;;38.03;17.65;;;11.40;99.90;;;;;;6272078;22;20000;-76
2023/10/26 08:42:23;;;;;;;34.55;17.83;;;11.40;99.90;;;;;;6272136;22;20011;-75
2023/10/26 08:44:49;;;;;;;31.10;16.80;;;11.40;99.90;;;;;;6271971;22;20000;-76
2023/10/26 08:47:17;;;;;;;37.65;19.13;;;11.50;99.90;;;;;;6270740;22;20000;-79
2023/10/26 08:49:44;;;;;;;29.08;17.25;;;11.50;99.90;;;;;;6272112;22;20003;-75
2023/10/26 08:52:10;;;;;;;33.00;18.85;;;11.60;99.90;;;;;;6271311;22;20248;-76
2023/10/26 08:54:35;;;;;;;42.17;19.00;;;11.60;99.90;;;;;;6270413;22;20007;-75
2023/10/26 08:57:12;;;;;;;57.08;21.52;;;11.60;99.90;;;;;;6269842;22;20042;-74
2023/10/26 08:59:38;;;;;;;28.85;18.00;;;11.70;99.90;;;;;;6268897;22;20425;-75
2023/10/26 09:02:04;;;;;;;35.13;18.10;;;11.70;99.90;;;;;;6269813;22;20010;-75
2023/10/26 09:04:29;;;;;;;26.35;18.33;;;11.80;99.90;;;;;;6268583;22;20189;-75
2023/10/26 09:06:55;;;;;;;45.65;21.63;;;11.90;99.90;;;;;;6240622;22;20028;-75
2023/10/26 09:09:21;;;;;;;26.95;18.70;;;11.90;99.90;;;;;;6269210;22;20003;-75
2023/10/26 09:11:48;;;;;;;59.53;24.23;;;12.00;99.90;;;;;;6271057;22;20015;-75
2023/10/26 09:14:16;;;;;;;40.30;22.52;;;12.00;99.90;;;;;;6272454;22;20384;-75
2023/10/26 09:16:44;;;;;;;26.17;18.83;;;12.00;99.90;;;;;;6271695;22;20026;-75
2023/10/26 09:19:11;;;;;;;30.63;23.15;;;12.00;99.90;;;;;;6271193;22;20010;-76
2023/10/26 09:21:53;;;;;;;38.15;23.38;;;12.00;99.90;;;;;;6270019;22;20255;-76
2023/10/26 09:24:19;;;;;;;29.10;20.50;;;12.10;99.90;;;;;;6271415;22;19992;-75
2023/10/26 09:26:44;;;;;;;30.30;22.90;;;12.10;99.90;;;;;;6270976;22;20007;-75
2023/10/26 09:29:10;;;;;;;29.15;21.33;;;12.10;99.90;;;;;;6271885;22;20441;-75
2023/10/26 09:31:49;;;;;;;37.33;25.15;;;12.20;99.90;;;;;;6269959;22;20454;-75
2023/10/26 09:34:16;;;;;;;31.73;22.50;;;12.20;99.90;;;;;;6271557;22;20326;-76
2023/10/26 09:36:41;;;;;;;31.80;21.52;;;12.30;99.90;;;;;;6271538;22;20079;-75
2023/10/26 09:39:08;;;;;;;33.17;25.33;;;12.40;99.90;;;;;;6270892;22;20445;-75
2023/10/26 09:41:35;;;;;;;34.20;24.13;;;12.50;99.90;;;;;;6270385;22;19995;-75
2023/10/26 09:44:01;;;;;;;34.20;24.05;;;12.50;99.90;;;;;;6270471;22;20087;-75
2023/10/26 09:46:26;;;;;;;29.20;22.02;;;12.50;99.90;;;;;;6271674;22;20031;-75
2023/10/26 09:48:52;;;;;;;32.67;24.10;;;12.50;99.90;;;;;;6270355;22;20004;-76
2023/10/26 09:51:20;;;;;;;33.05;24.33;;;12.60;99.90;;;;;;6271588;22;20008;-75
2023/10/26 09:53:47;;;;;;;24.83;21.05;;;12.60;99.90;;;;;;6269562;22;20004;-76
2023/10/26 09:56:20;;;;;;;28.60;23.27;;;12.60;99.90;;;;;;6272005;22;20038;-76
2023/10/26 09:58:46;;;;;;;31.33;24.83;;;12.70;99.90;;;;;;6272965;22;20027;-76
2023/10/26 10:01:36;;;;;;;26.20;22.27;;;12.70;99.90;;;;;;6273748;22;20000;-76
2023/10/26 10:04:06;;;;;;;26.95;21.75;;;12.80;99.90;;;;;;6271549;22;20425;-74
2023/10/26 10:06:52;;;;;;;27.40;21.67;;;12.80;99.90;;;;;;6273133;22;20038;-75
2023/10/26 10:09:25;;;;;;;22.75;19.38;;;12.90;99.90;;;;;;6274169;22;20008;-75
2023/10/26 10:12:06;;;;;;;28.57;21.93;;;12.90;99.90;;;;;;6246258;22;20031;-75
2023/10/26 10:14:47;;;;;;;29.65;22.25;;;12.90;99.90;;;;;;6271919;22;20494;-75
2023/10/26 10:17:20;;;;;;;25.35;19.60;;;12.80;99.90;;;;;;6273031;22;19996;-74
2023/10/26 10:20:17;;;;;;;30.92;23.75;;;12.80;99.90;;;;;;6246082;22;20000;-75
2023/10/26 10:22:47;;;;;;;25.35;21.73;;;12.70;99.90;;;;;;6235498;22;20336;-74
2023/10/26 10:25:16;;;;;;;22.27;19.88;;;12.60;99.90;;;;;;6245117;22;20147;-74
2023/10/26 10:28:02;;;;;;;27.92;23.42;;;12.60;99.90;;;;;;6273456;22;20083;-75
2023/10/26 10:30:29;;;;;;;27.25;21.88;;;12.60;99.90;;;;;;6272919;22;20003;-74
2023/10/26 10:32:57;;;;;;;25.90;21.40;;;12.50;99.90;;;;;;6272386;22;20079;-74
2023/10/26 10:35:44;;;;;;;27.85;21.75;;;12.50;99.90;;;;;;6272460;22;20015;-75
2023/10/26 10:38:13;;;;;;;32.88;25.35;;;12.50;99.90;;;;;;6272204;22;20019;-74
2023/10/26 10:40:40;;;;;;;27.02;23.23;;;12.60;99.90;;;;;;6272976;22;20000;-74
2023/10/26 10:43:06;;;;;;;31.58;23.30;;;12.60;99.90;;;;;;6271996;22;20472;-74
2023/10/26 10:45:32;;;;;;;32.65;23.75;;;12.60;99.90;;;;;;6272495;22;19996;-74
2023/10/26 10:47:57;;;;;;;35.85;28.48;;;12.70;99.90;;;;;;6269490;22;20483;-74
2023/10/26 10:50:25;;;;;;;26.67;22.13;;;12.80;99.90;;;;;;6271839;22;20000;-74
2023/10/26 10:52:56;;;;;;;28.88;23.95;;;12.80;99.90;;;;;;6245415;22;20039;-75
2023/10/26 10:55:24;;;;;;;28.58;23.52;;;12.90;99.90;;;;;;6272765;22;20083;-74
2023/10/26 10:58:02;;;;;;;28.58;24.80;;;13.00;99.90;;;;;;6271781;22;20000;-75
2023/10/26 11:00:44;;;;;;;29.42;22.83;;;13.10;99.90;;;;;;6272178;22;20004;-75
2023/10/26 11:03:20;;;;;;;32.75;24.98;;;13.10;99.90;;;;;;6272964;22;20314;-74
2023/10/26 11:05:45;;;;;;;27.58;23.20;;;13.10;99.90;;;;;;6272901;22;20045;-74
2023/10/26 11:08:11;;;;;;;29.25;23.83;;;13.10;99.90;;;;;;6273118;22;20106;-74
2023/10/26 11:10:37;;;;;;;29.95;24.27;;;13.10;99.90;;;;;;6270452;22;20027;-74
2023/10/26 11:13:03;;;;;;;27.30;23.58;;;13.10;99.90;;;;;;6272973;22;20000;-74
2023/10/26 11:15:34;;;;;;;24.75;20.23;;;13.10;99.90;;;;;;6272327;22;20000;-74
2023/10/26 11:18:01;;;;;;;31.35;23.55;;;13.10;99.90;;;;;;6272645;22;20003;-74
2023/10/26 11:20:41;;;;;;;25.40;21.98;;;13.10;99.90;;;;;;6270661;22;20003;-74
2023/10/26 11:23:08;;;;;;;27.73;22.35;;;13.20;99.90;;;;;;6272980;22;20385;-74
2023/10/26 11:25:35;;;;;;;27.75;21.80;;;13.20;99.90;;;;;;6272693;22;20004;-74
2023/10/26 11:28:01;;;;;;;28.92;23.45;;;13.20;99.90;;;;;;6272629;22;20004;-75
2023/10/26 11:30:26;;;;;;;27.48;23.98;;;13.30;99.90;;;;;;6271258;22;20018;-74
2023/10/26 11:32:52;;;;;;;28.25;22.88;;;13.30;99.90;;;;;;6271652;22;20057;-74
2023/10/26 11:35:18;;;;;;;23.98;20.92;;;13.30;99.90;;;;;;6272712;22;20058;-74
2023/10/26 11:37:51;;;;;;;25.20;21.48;;;13.40;99.90;;;;;;6272256;22;20065;-74
2023/10/26 11:40:17;;;;;;;27.67;22.92;;;13.40;99.90;;;;;;6272770;22;20012;-74
2023/10/26 11:42:44;;;;;;;23.55;21.00;;;13.30;99.90;;;;;;6271878;22;20071;-74
2023/10/26 11:45:11;;;;;;;24.63;20.83;;;13.20;99.90;;;;;;6272323;22;19995;-74
2023/10/26 11:48:03;;;;;;;24.58;21.75;;;13.30;99.90;;;;;;6272359;22;19999;-74
2023/10/26 11:50:36;;;;;;;23.80;19.90;;;13.30;99.90;;;;;;6264576;22;20004;-74
2023/10/26 11:53:05;;;;;;;22.83;20.35;;;13.30;99.90;;;;;;6271156;22;20053;-74
2023/10/26 11:55:33;;;;;;;23.95;21.35;;;13.30;99.90;;;;;;6272590;22;20019;-75
2023/10/26 11:57:59;;;;;;;25.50;22.75;;;13.30;99.90;;;;;;6272577;22;20034;-73
2023/10/26 12:00:26;;;;;;;21.33;18.90;;;13.30;99.90;;;;;;6271904;22;19996;-74
2023/10/26 12:02:58;;;;;;;22.20;19.42;;;13.30;99.90;;;;;;6271237;22;20034;-74
2023/10/26 12:05:25;;;;;;;22.40;19.83;;;13.30;99.90;;;;;;6272896;22;20000;-74
2023/10/26 12:07:51;;;;;;;19.80;17.80;;;13.30;99.90;;;;;;6272238;22;20011;-74
2023/10/26 12:10:19;;;;;;;20.00;17.90;;;13.30;99.90;;;;;;6245049;22;20340;-75
2023/10/26 12:12:45;;;;;;;23.80;20.98;;;13.30;99.90;;;;;;6272231;22;20381;-75
2023/10/26 12:15:11;;;;;;;26.25;20.98;;;13.30;99.90;;;;;;6270124;22;20019;-74
2023/10/26 12:17:37;;;;;;;23.05;20.50;;;13.30;99.90;;;;;;6272471;22;19995;-75
2023/10/26 12:20:04;;;;;;;21.33;18.98;;;13.20;99.90;;;;;;6271807;22;20053;-74
2023/10/26 12:22:30;;;;;;;21.42;18.67;;;13.10;99.90;;;;;;6271011;22;20011;-74
2023/10/26 12:24:55;;;;;;;20.08;17.98;;;13.10;99.90;;;;;;6269572;22;20333;-73